sensor_id;sensor_type;location;lat;lon;timestamp;temperature;humidity
23083;DHT22;11709;52.420;10.538;2022-09-09T00:02:57;14.80;99.90
23083;DHT22;11709;52.420;10.538;2022-09-09T00:07:22;14.80;99.90
23083;DHT22;11709;52.420;10.538;2022-09-09T00:11:28;14.80;99.90
23083;DHT22;11709;52.420;10.538;2022-09-09T00:15:37;14.70;99.90
23083;DHT22;11709;52.420;10.538;2022-09-09T00:19:45;14.70;99.90
23083;DHT22;11709;52.420;10.538;2022-09-09T00:23:50;14.70;99.90
23083;DHT22;11709;52.420;10.538;2022-09-09T00:27:54;14.50;99.90
23083;DHT22;11709;52.420;10.538;2022-09-09T00:32:07;14.60;99.90
23083;DHT22;11709;52.420;10.538;2022-09-09T00:36:09;14.60;99.90
23083;DHT22;11709;52.420;10.538;2022-09-09T00:40:23;14.60;99.90
23083;DHT22;11709;52.420;10.538;2022-09-09T00:44:31;14.60;99.90
23083;DHT22;11709;52.420;10.538;2022-09-09T00:53:14;14.50;99.90
23083;DHT22;11709;52.420;10.538;2022-09-09T00:57:28;14.50;99.90
23083;DHT22;11709;52.420;10.538;2022-09-09T01:01:30;14.50;99.90
23083;DHT22;11709;52.420;10.538;2022-09-09T01:05:39;14.50;99.90
23083;DHT22;11709;52.420;10.538;2022-09-09T01:14:09;14.40;99.90
23083;DHT22;11709;52.420;10.538;2022-09-09T01:18:08;14.40;99.90
23083;DHT22;11709;52.420;10.538;2022-09-09T01:26:43;14.40;99.90
23083;DHT22;11709;52.420;10.538;2022-09-09T01:30:46;14.40;99.90
23083;DHT22;11709;52.420;10.538;2022-09-09T01:34:48;14.40;99.90
23083;DHT22;11709;52.420;10.538;2022-09-09T01:38:53;14.50;99.90
23083;DHT22;11709;52.420;10.538;2022-09-09T01:42:56;14.50;99.90
23083;DHT22;11709;52.420;10.538;2022-09-09T01:46:59;14.50;99.90
23083;DHT22;11709;52.420;10.538;2022-09-09T01:51:01;14.50;99.90
23083;DHT22;11709;52.420;10.538;2022-09-09T01:55:05;14.50;99.90
23083;DHT22;11709;52.420;10.538;2022-09-09T01:59:23;14.50;99.90
23083;DHT22;11709;52.420;10.538;2022-09-09T02:03:31;14.50;99.90
23083;DHT22;11709;52.420;10.538;2022-09-09T02:07:41;14.50;99.90
23083;DHT22;11709;52.420;10.538;2022-09-09T02:11:46;14.50;99.90
23083;DHT22;11709;52.420;10.538;2022-09-09T02:15:58;14.40;99.90
23083;DHT22;11709;52.420;10.538;2022-09-09T02:20:07;14.40;99.90
23083;DHT22;11709;52.420;10.538;2022-09-09T02:24:12;14.30;99.90
23083;DHT22;11709;52.420;10.538;2022-09-09T02:28:17;14.30;99.90
23083;DHT22;11709;52.420;10.538;2022-09-09T02:32:23;14.30;99.90
23083;DHT22;11709;52.420;10.538;2022-09-09T02:36:29;14.30;99.90
23083;DHT22;11709;52.420;10.538;2022-09-09T02:40:32;14.20;99.90
23083;DHT22;11709;52.420;10.538;2022-09-09T02:44:35;14.20;99.90
23083;DHT22;11709;52.420;10.538;2022-09-09T02:48:55;14.20;99.90
23083;DHT22;11709;52.420;10.538;2022-09-09T02:57:23;14.10;99.90
23083;DHT22;11709;52.420;10.538;2022-09-09T03:01:27;14.10;99.90
23083;DHT22;11709;52.420;10.538;2022-09-09T03:05:30;14.10;99.90
23083;DHT22;11709;52.420;10.538;2022-09-09T03:09:33;14.10;99.90
23083;DHT22;11709;52.420;10.538;2022-09-09T03:13:35;14.10;99.90
23083;DHT22;11709;52.420;10.538;2022-09-09T03:17:39;14.10;99.90
23083;DHT22;11709;52.420;10.538;2022-09-09T03:21:42;14.10;99.90
23083;DHT22;11709;52.420;10.538;2022-09-09T03:25:49;14.00;99.90
23083;DHT22;11709;52.420;10.538;2022-09-09T03:29:52;14.00;99.90
23083;DHT22;11709;52.420;10.538;2022-09-09T03:33:55;14.00;99.90
23083;DHT22;11709;52.420;10.538;2022-09-09T03:37:59;13.90;99.90
23083;DHT22;11709;52.420;10.538;2022-09-09T03:42:02;13.90;99.90
23083;DHT22;11709;52.420;10.538;2022-09-09T03:46:07;13.90;99.90
23083;DHT22;11709;52.420;10.538;2022-09-09T03:50:10;13.90;99.90
23083;DHT22;11709;52.420;10.538;2022-09-09T03:54:13;14.00;99.90
23083;DHT22;11709;52.420;10.538;2022-09-09T03:58:16;14.00;99.90
23083;DHT22;11709;52.420;10.538;2022-09-09T04:02:22;14.00;99.90
23083;DHT22;11709;52.420;10.538;2022-09-09T04:06:25;14.10;99.90
23083;DHT22;11709;52.420;10.538;2022-09-09T04:10:27;14.10;99.90
23083;DHT22;11709;52.420;10.538;2022-09-09T04:14:31;14.20;99.90
23083;DHT22;11709;52.420;10.538;2022-09-09T04:18:33;14.20;99.90
23083;DHT22;11709;52.420;10.538;2022-09-09T04:22:36;14.20;99.90
23083;DHT22;11709;52.420;10.538;2022-09-09T04:26:40;14.20;99.90
23083;DHT22;11709;52.420;10.538;2022-09-09T04:30:44;14.30;99.90
23083;DHT22;11709;52.420;10.538;2022-09-09T04:34:46;14.20;99.90
23083;DHT22;11709;52.420;10.538;2022-09-09T04:38:49;14.20;99.90
23083;DHT22;11709;52.420;10.538;2022-09-09T04:42:52;14.30;99.90
23083;DHT22;11709;52.420;10.538;2022-09-09T04:46:54;14.20;99.90
23083;DHT22;11709;52.420;10.538;2022-09-09T04:51:03;14.20;99.90
23083;DHT22;11709;52.420;10.538;2022-09-09T04:55:07;14.20;99.90
23083;DHT22;11709;52.420;10.538;2022-09-09T04:59:10;14.20;99.90
23083;DHT22;11709;52.420;10.538;2022-09-09T05:03:13;14.10;99.90
23083;DHT22;11709;52.420;10.538;2022-09-09T05:07:15;14.10;99.90
23083;DHT22;11709;52.420;10.538;2022-09-09T05:11:22;14.20;99.90
23083;DHT22;11709;52.420;10.538;2022-09-09T05:15:26;14.10;99.90
23083;DHT22;11709;52.420;10.538;2022-09-09T05:19:28;14.20;99.90
23083;DHT22;11709;52.420;10.538;2022-09-09T05:23:33;14.20;99.90
23083;DHT22;11709;52.420;10.538;2022-09-09T05:27:36;14.30;99.90
23083;DHT22;11709;52.420;10.538;2022-09-09T05:31:39;14.30;99.90
23083;DHT22;11709;52.420;10.538;2022-09-09T05:35:42;14.30;99.90
23083;DHT22;11709;52.420;10.538;2022-09-09T05:39:45;14.40;99.90
23083;DHT22;11709;52.420;10.538;2022-09-09T05:43:47;14.50;99.90
23083;DHT22;11709;52.420;10.538;2022-09-09T05:47:52;14.60;99.90
23083;DHT22;11709;52.420;10.538;2022-09-09T05:51:57;14.60;99.90
23083;DHT22;11709;52.420;10.538;2022-09-09T05:56:04;14.70;99.90
23083;DHT22;11709;52.420;10.538;2022-09-09T06:00:08;14.80;99.90
23083;DHT22;11709;52.420;10.538;2022-09-09T06:04:11;14.90;99.90
23083;DHT22;11709;52.420;10.538;2022-09-09T06:08:13;15.00;99.90
23083;DHT22;11709;52.420;10.538;2022-09-09T06:12:16;15.00;99.90
23083;DHT22;11709;52.420;10.538;2022-09-09T06:16:23;15.10;99.90
23083;DHT22;11709;52.420;10.538;2022-09-09T06:20:26;15.20;99.90
23083;DHT22;11709;52.420;10.538;2022-09-09T06:24:30;15.20;99.90
23083;DHT22;11709;52.420;10.538;2022-09-09T06:28:33;15.40;99.90
23083;DHT22;11709;52.420;10.538;2022-09-09T06:32:36;15.40;99.90
23083;DHT22;11709;52.420;10.538;2022-09-09T06:36:39;15.50;99.90
23083;DHT22;11709;52.420;10.538;2022-09-09T06:40:42;15.70;99.90
23083;DHT22;11709;52.420;10.538;2022-09-09T06:44:45;15.80;99.90
23083;DHT22;11709;52.420;10.538;2022-09-09T06:48:48;15.90;99.90
23083;DHT22;11709;52.420;10.538;2022-09-09T06:52:50;16.10;99.90
23083;DHT22;11709;52.420;10.538;2022-09-09T06:56:53;16.30;99.90
23083;DHT22;11709;52.420;10.538;2022-09-09T07:01:04;16.50;99.90
23083;DHT22;11709;52.420;10.538;2022-09-09T07:05:07;16.70;99.90
23083;DHT22;11709;52.420;10.538;2022-09-09T07:09:11;16.90;99.90
23083;DHT22;11709;52.420;10.538;2022-09-09T07:13:14;17.10;99.90
23083;DHT22;11709;52.420;10.538;2022-09-09T07:17:17;17.30;99.90
23083;DHT22;11709;52.420;10.538;2022-09-09T07:21:19;17.60;99.90
23083;DHT22;11709;52.420;10.538;2022-09-09T07:25:23;17.70;99.90
23083;DHT22;11709;52.420;10.538;2022-09-09T07:29:25;17.90;99.90
23083;DHT22;11709;52.420;10.538;2022-09-09T07:33:28;18.00;99.90
23083;DHT22;11709;52.420;10.538;2022-09-09T07:37:32;18.10;99.90
23083;DHT22;11709;52.420;10.538;2022-09-09T07:41:38;18.20;99.90
23083;DHT22;11709;52.420;10.538;2022-09-09T07:45:41;18.20;99.90
23083;DHT22;11709;52.420;10.538;2022-09-09T07:49:44;18.20;99.90
23083;DHT22;11709;52.420;10.538;2022-09-09T07:53:48;18.10;99.90
23083;DHT22;11709;52.420;10.538;2022-09-09T07:57:51;18.10;99.90
23083;DHT22;11709;52.420;10.538;2022-09-09T08:01:53;18.30;99.90
23083;DHT22;11709;52.420;10.538;2022-09-09T08:06:02;18.30;99.90
23083;DHT22;11709;52.420;10.538;2022-09-09T08:10:04;18.50;99.90
23083;DHT22;11709;52.420;10.538;2022-09-09T08:14:09;18.60;99.90
23083;DHT22;11709;52.420;10.538;2022-09-09T08:18:12;18.60;99.90
23083;DHT22;11709;52.420;10.538;2022-09-09T08:22:15;18.50;99.90
23083;DHT22;11709;52.420;10.538;2022-09-09T08:26:20;18.50;99.90
23083;DHT22;11709;52.420;10.538;2022-09-09T08:30:23;18.70;99.90
23083;DHT22;11709;52.420;10.538;2022-09-09T08:34:26;18.80;99.90
23083;DHT22;11709;52.420;10.538;2022-09-09T08:38:29;19.00;99.90
23083;DHT22;11709;52.420;10.538;2022-09-09T08:42:49;19.10;99.90
23083;DHT22;11709;52.420;10.538;2022-09-09T08:47:20;19.10;99.90
23083;DHT22;11709;52.420;10.538;2022-09-09T08:51:21;19.00;99.90
23083;DHT22;11709;52.420;10.538;2022-09-09T08:55:47;19.00;99.90
23083;DHT22;11709;52.420;10.538;2022-09-09T08:59:51;19.30;99.90
23083;DHT22;11709;52.420;10.538;2022-09-09T09:04:14;19.50;99.90
23083;DHT22;11709;52.420;10.538;2022-09-09T09:08:46;19.80;99.90
23083;DHT22;11709;52.420;10.538;2022-09-09T09:12:48;20.20;99.90
23083;DHT22;11709;52.420;10.538;2022-09-09T09:17:05;20.40;99.90
23083;DHT22;11709;52.420;10.538;2022-09-09T09:21:25;20.40;99.90
23083;DHT22;11709;52.420;10.538;2022-09-09T09:25:31;20.70;99.90
23083;DHT22;11709;52.420;10.538;2022-09-09T09:29:34;21.10;99.90
23083;DHT22;11709;52.420;10.538;2022-09-09T09:33:53;21.70;99.90
23083;DHT22;11709;52.420;10.538;2022-09-09T09:37:56;21.90;99.90
23083;DHT22;11709;52.420;10.538;2022-09-09T09:42:07;21.90;99.90
23083;DHT22;11709;52.420;10.538;2022-09-09T09:46:05;22.30;99.90
23083;DHT22;11709;52.420;10.538;2022-09-09T09:50:17;22.40;99.90
23083;DHT22;11709;52.420;10.538;2022-09-09T09:54:28;22.40;99.90
23083;DHT22;11709;52.420;10.538;2022-09-09T09:58:54;22.70;99.90
23083;DHT22;11709;52.420;10.538;2022-09-09T10:02:42;22.80;99.90
23083;DHT22;11709;52.420;10.538;2022-09-09T10:06:45;22.20;99.90
23083;DHT22;11709;52.420;10.538;2022-09-09T10:15:34;22.40;99.90
23083;DHT22;11709;52.420;10.538;2022-09-09T10:19:37;22.20;99.90
23083;DHT22;11709;52.420;10.538;2022-09-09T10:36:30;23.30;99.90
23083;DHT22;11709;52.420;10.538;2022-09-09T10:45:18;23.20;99.90
23083;DHT22;11709;52.420;10.538;2022-09-09T10:57:54;22.40;99.90
23083;DHT22;11709;52.420;10.538;2022-09-09T11:02:11;22.40;99.90
23083;DHT22;11709;52.420;10.538;2022-09-09T11:06:19;23.30;99.90
23083;DHT22;11709;52.420;10.538;2022-09-09T11:10:23;24.00;99.90
23083;DHT22;11709;52.420;10.538;2022-09-09T11:14:45;24.20;99.90
23083;DHT22;11709;52.420;10.538;2022-09-09T11:18:49;24.00;99.90
23083;DHT22;11709;52.420;10.538;2022-09-09T11:22:58;23.70;99.90
23083;DHT22;11709;52.420;10.538;2022-09-09T11:27:00;23.20;99.90
23083;DHT22;11709;52.420;10.538;2022-09-09T11:40:09;22.70;99.90
23083;DHT22;11709;52.420;10.538;2022-09-09T11:44:23;22.80;99.90
23083;DHT22;11709;52.420;10.538;2022-09-09T11:48:37;22.70;99.90
23083;DHT22;11709;52.420;10.538;2022-09-09T11:52:41;22.60;99.90
23083;DHT22;11709;52.420;10.538;2022-09-09T11:56:47;22.50;99.90
23083;DHT22;11709;52.420;10.538;2022-09-09T12:00:50;22.20;99.90
23083;DHT22;11709;52.420;10.538;2022-09-09T12:13:28;22.50;99.90
23083;DHT22;11709;52.420;10.538;2022-09-09T12:17:53;22.50;99.90
23083;DHT22;11709;52.420;10.538;2022-09-09T12:30:14;22.70;99.90
23083;DHT22;11709;52.420;10.538;2022-09-09T12:34:35;22.70;99.90
23083;DHT22;11709;52.420;10.538;2022-09-09T12:38:39;22.40;99.90
23083;DHT22;11709;52.420;10.538;2022-09-09T12:42:42;22.20;99.90
23083;DHT22;11709;52.420;10.538;2022-09-09T12:46:46;22.30;99.90
23083;DHT22;11709;52.420;10.538;2022-09-09T12:50:53;22.30;99.90
23083;DHT22;11709;52.420;10.538;2022-09-09T12:54:59;21.70;99.90
23083;DHT22;11709;52.420;10.538;2022-09-09T12:59:03;21.20;99.90
23083;DHT22;11709;52.420;10.538;2022-09-09T13:03:19;21.00;99.90
23083;DHT22;11709;52.420;10.538;2022-09-09T13:07:22;21.10;99.90
23083;DHT22;11709;52.420;10.538;2022-09-09T13:11:29;20.80;99.90
23083;DHT22;11709;52.420;10.538;2022-09-09T13:15:32;20.70;99.90
23083;DHT22;11709;52.420;10.538;2022-09-09T13:19:37;20.70;99.90
23083;DHT22;11709;52.420;10.538;2022-09-09T13:23:40;20.60;99.90
23083;DHT22;11709;52.420;10.538;2022-09-09T13:27:55;20.50;99.90
23083;DHT22;11709;52.420;10.538;2022-09-09T13:32:17;20.70;99.90
23083;DHT22;11709;52.420;10.538;2022-09-09T13:36:31;20.70;99.90
23083;DHT22;11709;52.420;10.538;2022-09-09T13:40:34;20.80;99.90
23083;DHT22;11709;52.420;10.538;2022-09-09T13:44:39;21.10;99.90
23083;DHT22;11709;52.420;10.538;2022-09-09T13:48:43;21.40;99.90
23083;DHT22;11709;52.420;10.538;2022-09-09T13:52:49;21.70;99.90
23083;DHT22;11709;52.420;10.538;2022-09-09T13:56:52;22.00;99.90
23083;DHT22;11709;52.420;10.538;2022-09-09T14:00:56;22.20;99.90
23083;DHT22;11709;52.420;10.538;2022-09-09T14:04:59;22.50;99.90
23083;DHT22;11709;52.420;10.538;2022-09-09T14:09:01;22.40;99.90
23083;DHT22;11709;52.420;10.538;2022-09-09T14:13:04;22.30;99.90
23083;DHT22;11709;52.420;10.538;2022-09-09T14:17:06;22.00;99.90
23083;DHT22;11709;52.420;10.538;2022-09-09T14:21:09;21.80;99.90
23083;DHT22;11709;52.420;10.538;2022-09-09T14:25:12;21.70;99.90
23083;DHT22;11709;52.420;10.538;2022-09-09T14:29:15;21.60;99.90
23083;DHT22;11709;52.420;10.538;2022-09-09T14:33:18;21.80;99.90
23083;DHT22;11709;52.420;10.538;2022-09-09T14:37:20;22.30;99.90
23083;DHT22;11709;52.420;10.538;2022-09-09T14:41:23;22.80;99.90
23083;DHT22;11709;52.420;10.538;2022-09-09T14:45:26;22.70;99.90
23083;DHT22;11709;52.420;10.538;2022-09-09T14:49:29;22.80;99.90
23083;DHT22;11709;52.420;10.538;2022-09-09T14:53:32;23.00;99.90
23083;DHT22;11709;52.420;10.538;2022-09-09T14:57:35;23.40;99.90
23083;DHT22;11709;52.420;10.538;2022-09-09T15:01:37;24.20;99.90
23083;DHT22;11709;52.420;10.538;2022-09-09T15:05:40;24.50;99.90
23083;DHT22;11709;52.420;10.538;2022-09-09T15:09:42;25.00;99.90
23083;DHT22;11709;52.420;10.538;2022-09-09T15:13:45;24.90;99.90
23083;DHT22;11709;52.420;10.538;2022-09-09T15:17:48;25.10;99.90
23083;DHT22;11709;52.420;10.538;2022-09-09T15:21:51;24.80;99.90
23083;DHT22;11709;52.420;10.538;2022-09-09T15:25:54;24.60;99.90
23083;DHT22;11709;52.420;10.538;2022-09-09T15:29:57;24.60;99.90
23083;DHT22;11709;52.420;10.538;2022-09-09T15:34:05;24.70;99.90
23083;DHT22;11709;52.420;10.538;2022-09-09T15:38:08;24.50;99.90
23083;DHT22;11709;52.420;10.538;2022-09-09T15:42:10;24.10;99.90
23083;DHT22;11709;52.420;10.538;2022-09-09T15:46:30;24.00;99.90
23083;DHT22;11709;52.420;10.538;2022-09-09T15:50:33;24.20;99.90
23083;DHT22;11709;52.420;10.538;2022-09-09T15:54:36;24.30;99.90
23083;DHT22;11709;52.420;10.538;2022-09-09T15:58:40;24.00;99.90
23083;DHT22;11709;52.420;10.538;2022-09-09T16:02:46;23.90;99.90
23083;DHT22;11709;52.420;10.538;2022-09-09T16:06:50;23.60;99.90
23083;DHT22;11709;52.420;10.538;2022-09-09T16:10:52;23.30;99.90
23083;DHT22;11709;52.420;10.538;2022-09-09T16:14:55;23.10;99.90
23083;DHT22;11709;52.420;10.538;2022-09-09T16:19:00;23.00;99.90
23083;DHT22;11709;52.420;10.538;2022-09-09T16:23:03;22.80;99.90
23083;DHT22;11709;52.420;10.538;2022-09-09T16:27:05;22.70;99.90
23083;DHT22;11709;52.420;10.538;2022-09-09T16:31:11;22.60;99.90
23083;DHT22;11709;52.420;10.538;2022-09-09T16:35:13;22.50;99.90
23083;DHT22;11709;52.420;10.538;2022-09-09T16:39:18;22.30;99.90
23083;DHT22;11709;52.420;10.538;2022-09-09T16:43:21;22.10;99.90
23083;DHT22;11709;52.420;10.538;2022-09-09T16:47:23;21.80;99.90
23083;DHT22;11709;52.420;10.538;2022-09-09T16:51:29;21.70;99.90
23083;DHT22;11709;52.420;10.538;2022-09-09T16:55:32;21.60;99.90
23083;DHT22;11709;52.420;10.538;2022-09-09T16:59:35;21.40;99.90
23083;DHT22;11709;52.420;10.538;2022-09-09T17:03:38;21.30;99.90
23083;DHT22;11709;52.420;10.538;2022-09-09T17:07:41;21.10;99.90
23083;DHT22;11709;52.420;10.538;2022-09-09T17:11:45;20.90;99.90
23083;DHT22;11709;52.420;10.538;2022-09-09T17:15:49;20.70;99.90
23083;DHT22;11709;52.420;10.538;2022-09-09T17:19:52;20.50;99.90
23083;DHT22;11709;52.420;10.538;2022-09-09T17:23:55;20.30;99.90
23083;DHT22;11709;52.420;10.538;2022-09-09T17:27:58;20.10;99.90
23083;DHT22;11709;52.420;10.538;2022-09-09T17:32:01;19.90;99.90
23083;DHT22;11709;52.420;10.538;2022-09-09T17:36:10;19.80;99.90
23083;DHT22;11709;52.420;10.538;2022-09-09T17:40:12;19.70;99.90
23083;DHT22;11709;52.420;10.538;2022-09-09T17:44:15;19.50;99.90
23083;DHT22;11709;52.420;10.538;2022-09-09T17:48:18;19.40;99.90
23083;DHT22;11709;52.420;10.538;2022-09-09T17:52:20;19.20;99.90
23083;DHT22;11709;52.420;10.538;2022-09-09T17:56:25;19.10;99.90
23083;DHT22;11709;52.420;10.538;2022-09-09T18:00:29;18.90;99.90
23083;DHT22;11709;52.420;10.538;2022-09-09T18:04:32;18.80;99.90
23083;DHT22;11709;52.420;10.538;2022-09-09T18:08:37;18.80;99.90
23083;DHT22;11709;52.420;10.538;2022-09-09T18:12:39;18.80;99.90
23083;DHT22;11709;52.420;10.538;2022-09-09T18:16:43;18.70;99.90
23083;DHT22;11709;52.420;10.538;2022-09-09T18:20:56;18.50;99.90
23083;DHT22;11709;52.420;10.538;2022-09-09T18:24:51;18.40;99.90
23083;DHT22;11709;52.420;10.538;2022-09-09T18:28:57;18.30;99.90
23083;DHT22;11709;52.420;10.538;2022-09-09T18:32:59;18.10;99.90
23083;DHT22;11709;52.420;10.538;2022-09-09T18:37:03;18.00;99.90
23083;DHT22;11709;52.420;10.538;2022-09-09T18:41:13;17.90;99.90
23083;DHT22;11709;52.420;10.538;2022-09-09T18:45:16;18.00;99.90
23083;DHT22;11709;52.420;10.538;2022-09-09T18:49:20;18.10;99.90
23083;DHT22;11709;52.420;10.538;2022-09-09T18:53:23;18.20;99.90
23083;DHT22;11709;52.420;10.538;2022-09-09T18:57:25;18.10;99.90
23083;DHT22;11709;52.420;10.538;2022-09-09T19:01:28;18.10;99.90
23083;DHT22;11709;52.420;10.538;2022-09-09T19:05:31;18.00;99.90
23083;DHT22;11709;52.420;10.538;2022-09-09T19:09:34;17.90;99.90
23083;DHT22;11709;52.420;10.538;2022-09-09T19:13:36;17.90;99.90
23083;DHT22;11709;52.420;10.538;2022-09-09T19:17:39;18.00;99.90
23083;DHT22;11709;52.420;10.538;2022-09-09T19:21:42;18.00;99.90
23083;DHT22;11709;52.420;10.538;2022-09-09T19:25:45;17.90;99.90
23083;DHT22;11709;52.420;10.538;2022-09-09T19:29:48;18.00;99.90
23083;DHT22;11709;52.420;10.538;2022-09-09T19:33:52;18.00;99.90
23083;DHT22;11709;52.420;10.538;2022-09-09T19:37:58;18.00;99.90
23083;DHT22;11709;52.420;10.538;2022-09-09T19:42:01;18.00;99.90
23083;DHT22;11709;52.420;10.538;2022-09-09T19:46:06;18.00;99.90
23083;DHT22;11709;52.420;10.538;2022-09-09T19:50:09;18.00;99.90
23083;DHT22;11709;52.420;10.538;2022-09-09T19:54:12;18.00;99.90
23083;DHT22;11709;52.420;10.538;2022-09-09T19:58:15;18.00;99.90
23083;DHT22;11709;52.420;10.538;2022-09-09T20:02:17;18.00;99.90
23083;DHT22;11709;52.420;10.538;2022-09-09T20:06:22;17.90;99.90
23083;DHT22;11709;52.420;10.538;2022-09-09T20:10:25;17.70;99.90
23083;DHT22;11709;52.420;10.538;2022-09-09T20:14:28;17.70;99.90
23083;DHT22;11709;52.420;10.538;2022-09-09T20:18:32;17.60;99.90
23083;DHT22;11709;52.420;10.538;2022-09-09T20:22:35;17.60;99.90
23083;DHT22;11709;52.420;10.538;2022-09-09T20:26:38;17.50;99.90
23083;DHT22;11709;52.420;10.538;2022-09-09T20:30:41;17.60;99.90
23083;DHT22;11709;52.420;10.538;2022-09-09T20:34:43;17.60;99.90
23083;DHT22;11709;52.420;10.538;2022-09-09T20:38:50;17.60;99.90
23083;DHT22;11709;52.420;10.538;2022-09-09T20:42:53;17.70;99.90
23083;DHT22;11709;52.420;10.538;2022-09-09T20:46:56;17.70;99.90
23083;DHT22;11709;52.420;10.538;2022-09-09T20:51:04;17.60;99.90
23083;DHT22;11709;52.420;10.538;2022-09-09T20:55:07;17.60;99.90
23083;DHT22;11709;52.420;10.538;2022-09-09T20:59:16;17.60;99.90
23083;DHT22;11709;52.420;10.538;2022-09-09T21:03:19;17.60;99.90
23083;DHT22;11709;52.420;10.538;2022-09-09T21:07:21;17.60;99.90
23083;DHT22;11709;52.420;10.538;2022-09-09T21:11:24;17.60;99.90
23083;DHT22;11709;52.420;10.538;2022-09-09T21:15:27;17.60;99.90
23083;DHT22;11709;52.420;10.538;2022-09-09T21:19:29;17.60;99.90
23083;DHT22;11709;52.420;10.538;2022-09-09T21:23:32;17.50;99.90
23083;DHT22;11709;52.420;10.538;2022-09-09T21:27:36;17.50;99.90
23083;DHT22;11709;52.420;10.538;2022-09-09T21:31:39;17.50;99.90
23083;DHT22;11709;52.420;10.538;2022-09-09T21:35:42;17.50;99.90
23083;DHT22;11709;52.420;10.538;2022-09-09T21:39:44;17.50;99.90
23083;DHT22;11709;52.420;10.538;2022-09-09T21:43:50;17.50;99.90
23083;DHT22;11709;52.420;10.538;2022-09-09T21:47:54;17.50;99.90
23083;DHT22;11709;52.420;10.538;2022-09-09T21:51:56;17.40;99.90
23083;DHT22;11709;52.420;10.538;2022-09-09T21:56:05;17.40;99.90
23083;DHT22;11709;52.420;10.538;2022-09-09T22:00:08;17.30;99.90
23083;DHT22;11709;52.420;10.538;2022-09-09T22:04:15;17.30;99.90
23083;DHT22;11709;52.420;10.538;2022-09-09T22:08:18;17.20;99.90
23083;DHT22;11709;52.420;10.538;2022-09-09T22:12:20;17.10;99.90
23083;DHT22;11709;52.420;10.538;2022-09-09T22:16:23;17.20;99.90
23083;DHT22;11709;52.420;10.538;2022-09-09T22:20:26;17.10;99.90
23083;DHT22;11709;52.420;10.538;2022-09-09T22:24:28;17.10;99.90
23083;DHT22;11709;52.420;10.538;2022-09-09T22:28:31;17.10;99.90
23083;DHT22;11709;52.420;10.538;2022-09-09T22:32:34;17.10;99.90
23083;DHT22;11709;52.420;10.538;2022-09-09T22:36:36;17.10;99.90
23083;DHT22;11709;52.420;10.538;2022-09-09T22:40:40;17.00;99.90
23083;DHT22;11709;52.420;10.538;2022-09-09T22:44:42;17.00;99.90
23083;DHT22;11709;52.420;10.538;2022-09-09T22:48:45;17.00;99.90
23083;DHT22;11709;52.420;10.538;2022-09-09T22:52:48;16.90;99.90
23083;DHT22;11709;52.420;10.538;2022-09-09T22:56:52;16.80;99.90
23083;DHT22;11709;52.420;10.538;2022-09-09T23:00:56;16.70;99.90
23083;DHT22;11709;52.420;10.538;2022-09-09T23:04:59;16.60;99.90
23083;DHT22;11709;52.420;10.538;2022-09-09T23:09:02;16.50;99.90
23083;DHT22;11709;52.420;10.538;2022-09-09T23:13:06;16.40;99.90
23083;DHT22;11709;52.420;10.538;2022-09-09T23:17:09;16.40;99.90
23083;DHT22;11709;52.420;10.538;2022-09-09T23:21:14;16.20;99.90
23083;DHT22;11709;52.420;10.538;2022-09-09T23:25:17;16.20;99.90
23083;DHT22;11709;52.420;10.538;2022-09-09T23:29:19;16.10;99.90
23083;DHT22;11709;52.420;10.538;2022-09-09T23:33:22;16.00;99.90
23083;DHT22;11709;52.420;10.538;2022-09-09T23:37:24;16.00;99.90
23083;DHT22;11709;52.420;10.538;2022-09-09T23:41:27;16.00;99.90
23083;DHT22;11709;52.420;10.538;2022-09-09T23:45:30;16.00;99.90
23083;DHT22;11709;52.420;10.538;2022-09-09T23:49:33;16.00;99.90
23083;DHT22;11709;52.420;10.538;2022-09-09T23:53:36;16.00;99.90
23083;DHT22;11709;52.420;10.538;2022-09-09T23:57:40;16.00;99.90
